Time;durP1;ratioP1;P1;durP2;ratioP2;P2;SDS_P1;SDS_P2;PMS_P1;PMS_P2;Temp;Humidity;BMP_temperature;BMP_pressure;BME280_temperature;BME280_humidity;BME280_pressure;Samples;Min_cycle;Max_cycle;Signal;HPM_P1;HPM_P2
2023/04/12 00:00:28;;;;;;;7.70;3.17;;;;;;;2.10;97.10;100706.00;7395072;19;20017;-70
2023/04/12 00:02:58;;;;;;;8.27;3.00;;;;;;;2.07;97.09;100701.66;7395493;19;20090;-69
2023/04/12 00:05:27;;;;;;;5.55;2.90;;;;;;;2.05;97.15;100703.34;7393648;19;20018;-70
2023/04/12 00:07:55;;;;;;;6.22;2.85;;;;;;;2.03;97.35;100693.84;7394998;19;20365;-70
2023/04/12 00:10:24;;;;;;;5.32;2.88;;;;;;;1.99;97.30;100684.31;7396670;19;20022;-70
2023/04/12 00:12:53;;;;;;;5.55;3.53;;;;;;;1.99;97.67;100687.75;7402227;19;20019;-69
2023/04/12 00:15:24;;;;;;;8.90;3.60;;;;;;;1.98;97.80;100680.84;7402855;19;20086;-70
2023/04/12 00:17:52;;;;;;;6.55;3.13;;;;;;;1.97;97.82;100679.09;7402901;19;20074;-70
2023/04/12 00:20:21;;;;;;;6.78;2.72;;;;;;;1.95;97.67;100676.50;7399351;19;20548;-70
2023/04/12 00:22:52;;;;;;;5.05;3.13;;;;;;;1.92;97.97;100668.69;7401629;19;20384;-70
2023/04/12 00:25:21;;;;;;;6.47;3.55;;;;;;;1.91;97.97;100656.59;7402132;19;20073;-70
2023/04/12 00:27:49;;;;;;;7.95;4.00;;;;;;;1.91;97.85;100653.16;7402480;19;20078;-70
2023/04/12 00:30:18;;;;;;;6.70;4.03;;;;;;;1.88;98.06;100658.28;7402381;19;20086;-70
2023/04/12 00:32:49;;;;;;;8.82;4.07;;;;;;;1.87;97.96;100661.72;7401785;19;20027;-70
2023/04/12 00:35:18;;;;;;;6.75;3.22;;;;;;;1.86;97.83;100654.78;7402592;19;20083;-70
2023/04/12 00:37:46;;;;;;;7.75;3.58;;;;;;;1.84;97.77;100664.28;7402136;19;20041;-70
2023/04/12 00:40:15;;;;;;;5.80;3.88;;;;;;;1.84;97.87;100656.50;7399152;19;20078;-69
2023/04/12 00:42:43;;;;;;;7.28;3.78;;;;;;;1.82;98.06;100653.91;7401115;19;20081;-69
2023/04/12 00:45:14;;;;;;;7.80;3.90;;;;;;;1.81;98.07;100656.47;7399110;19;20094;-69
2023/04/12 00:47:43;;;;;;;6.55;3.63;;;;;;;1.77;98.16;100653.00;7401854;19;20082;-70
2023/04/12 00:50:16;;;;;;;6.25;3.17;;;;;;;1.76;98.04;100652.09;7401708;19;20018;-71
2023/04/12 00:52:44;;;;;;;6.03;3.70;;;;;;;1.74;98.14;100656.38;7401634;19;20086;-68
2023/04/12 00:55:14;;;;;;;4.68;3.45;;;;;;;1.73;98.08;100649.50;7401053;19;20014;-68
2023/04/12 00:57:43;;;;;;;6.40;3.58;;;;;;;1.70;98.27;100652.03;7401495;19;20018;-68
2023/04/12 01:00:15;;;;;;;7.38;3.60;;;;;;;1.69;98.11;100639.94;7397636;19;20525;-69
2023/04/12 01:02:49;;;;;;;11.80;4.72;;;;;;;1.67;98.15;100638.19;7401321;19;20018;-68
2023/04/12 01:05:24;;;;;;;7.88;4.00;;;;;;;1.63;98.31;100639.84;7401600;19;20021;-69
2023/04/12 01:08:25;;;;;;;7.70;3.70;;;;;;;1.61;98.25;100642.41;7401493;19;20081;-69
2023/04/12 01:17:23;;;;;;;8.93;4.40;;;;;;;1.58;98.17;100619.13;7400784;19;19989;-69
2023/04/12 01:19:58;;;;;;;4.68;3.85;;;;;;;1.57;98.35;100624.28;7398688;19;20017;-69
2023/04/12 01:22:54;;;;;;;5.55;4.38;;;;;;;1.56;98.37;100625.13;7400296;19;20373;-70
2023/04/12 01:25:39;;;;;;;10.02;3.90;;;;;;;1.55;98.31;100626.81;7400781;19;20018;-69
2023/04/12 01:28:13;;;;;;;6.35;4.03;;;;;;;1.54;98.46;100619.94;7400835;19;20019;-69
2023/04/12 01:30:43;;;;;;;5.15;3.88;;;;;;;1.52;98.55;100624.22;7400180;19;20092;-70
2023/04/12 01:33:13;;;;;;;7.80;3.58;;;;;;;1.52;98.60;100620.78;7399682;19;20090;-69
2023/04/12 01:44:48;;;;;;;9.82;4.00;;;;;;;1.44;98.58;100608.59;7397441;19;20011;-69
2023/04/12 01:47:16;;;;;;;8.63;4.30;;;;;;;1.43;98.66;100606.84;7397932;19;20405;-69
2023/04/12 01:49:55;;;;;;;7.65;3.78;;;;;;;1.41;98.61;100605.94;7399311;19;20552;-69
2023/04/12 01:52:28;;;;;;;8.27;4.57;;;;;;;1.40;98.65;100605.94;7400126;19;20022;-69
2023/04/12 01:55:00;;;;;;;11.32;3.78;;;;;;;1.38;99.00;100605.03;7396818;19;20015;-69
2023/04/12 01:57:30;;;;;;;8.80;4.50;;;;;;;1.36;98.99;100602.44;7399772;19;20025;-69
2023/04/12 02:00:05;;;;;;;8.57;3.80;;;;;;;1.34;98.86;100593.81;7397725;19;20015;-69
2023/04/12 02:02:35;;;;;;;5.68;3.88;;;;;;;1.33;98.87;100592.06;7396830;19;20017;-69
2023/04/12 02:05:04;;;;;;;5.95;3.60;;;;;;;1.31;98.91;100588.59;7398998;19;20015;-70
2023/04/12 02:07:33;;;;;;;4.55;3.53;;;;;;;1.28;99.11;100580.81;7399120;19;20037;-70
2023/04/12 02:10:01;;;;;;;8.95;4.20;;;;;;;1.26;99.18;100582.47;7398470;19;20082;-71
2023/04/12 02:12:29;;;;;;;10.23;4.05;;;;;;;1.24;99.10;100582.47;7400621;19;20481;-70
2023/04/12 02:15:01;;;;;;;8.13;3.80;;;;;;;1.22;99.07;100584.16;7401434;19;20078;-70
2023/04/12 02:17:29;;;;;;;8.55;4.93;;;;;;;1.20;99.11;100584.97;7397473;19;20022;-71
2023/04/12 02:19:58;;;;;;;8.48;4.07;;;;;;;1.17;99.01;100590.97;7397326;19;20041;-70
2023/04/12 02:22:26;;;;;;;6.03;3.70;;;;;;;1.15;98.83;100592.69;7399680;19;20025;-69
2023/04/12 02:24:55;;;;;;;4.20;3.53;;;;;;;1.12;98.89;100587.47;7399987;19;20477;-70
2023/04/12 02:27:23;;;;;;;7.80;4.72;;;;;;;1.10;98.96;100581.38;7396352;19;20269;-70
2023/04/12 02:29:51;;;;;;;7.00;3.90;;;;;;;1.09;99.16;100582.25;7398409;19;20015;-70
2023/04/12 02:32:23;;;;;;;7.03;3.97;;;;;;;1.07;99.25;100578.78;7398158;19;20074;-70
2023/04/12 02:34:52;;;;;;;6.70;4.18;;;;;;;1.05;99.22;100576.19;7395137;19;20124;-71
2023/04/12 02:37:23;;;;;;;6.03;4.07;;;;;;;1.03;99.19;100566.66;7397903;19;20029;-69
2023/04/12 02:39:52;;;;;;;6.90;4.22;;;;;;;1.01;99.24;100561.47;7397021;19;20018;-71
2023/04/12 02:42:21;;;;;;;7.63;4.32;;;;;;;0.98;99.26;100549.38;7397794;19;20030;-70
2023/04/12 02:44:50;;;;;;;9.73;4.60;;;;;;;0.96;99.03;100542.44;7395569;19;20090;-69
2023/04/12 02:47:21;;;;;;;7.97;4.57;;;;;;;0.93;99.21;100539.81;7397397;19;20014;-70
2023/04/12 02:49:50;;;;;;;6.80;5.13;;;;;;;0.91;99.09;100541.50;7397846;19;20054;-70
2023/04/12 02:52:18;;;;;;;11.15;4.90;;;;;;;0.90;99.32;100537.22;7398375;19;20082;-69
2023/04/12 02:54:46;;;;;;;6.13;4.25;;;;;;;0.88;99.38;100538.88;7395995;19;20014;-69
2023/04/12 02:57:15;;;;;;;7.70;4.40;;;;;;;0.87;99.12;100537.16;7397968;19;20010;-69
2023/04/12 02:59:44;;;;;;;6.15;4.75;;;;;;;0.83;99.13;100531.06;7396818;19;20259;-70
2023/04/12 03:02:19;;;;;;;6.18;4.18;;;;;;;0.82;99.04;100524.16;7395622;19;20031;-69
2023/04/12 03:04:53;;;;;;;10.73;5.53;;;;;;;0.78;99.21;100520.69;7398218;19;20549;-69
2023/04/12 03:07:22;;;;;;;;;;;;;;;0.77;99.26;100512.91;7398171;19;20018;-68
2023/04/12 03:09:52;;;;;;;5.47;4.57;;;;;;;0.75;99.26;100515.47;7396837;19;19986;-68
2023/04/12 03:12:20;;;;;;;6.38;4.72;;;;;;;0.72;99.17;100512.84;7396257;19;20101;-70
2023/04/12 03:14:49;;;;;;;8.43;4.65;;;;;;;0.69;98.94;100512.78;7394503;19;20019;-70
2023/04/12 03:17:17;;;;;;;9.52;5.70;;;;;;;0.65;99.23;100513.59;7396409;19;20011;-70
2023/04/12 03:19:46;;;;;;;8.18;4.93;;;;;;;0.63;99.29;100510.09;7396064;19;20027;-70
2023/04/12 03:22:17;;;;;;;6.95;4.43;;;;;;;0.59;99.33;100500.59;7396676;19;20026;-70
2023/04/12 03:24:52;;;;;;;8.88;5.30;;;;;;;0.57;99.44;100502.25;7394819;19;20018;-69
2023/04/12 03:27:21;;;;;;;13.10;6.13;;;;;;;0.54;99.33;100494.47;7396098;19;20010;-69
2023/04/12 03:29:51;;;;;;;9.60;5.88;;;;;;;0.52;99.49;100499.63;7396345;19;20031;-69
2023/04/12 03:32:19;;;;;;;9.68;5.20;;;;;;;0.50;99.36;100492.72;7395931;19;20027;-69
2023/04/12 03:34:48;;;;;;;8.98;5.68;;;;;;;0.47;99.26;100494.38;7393846;19;20477;-69
2023/04/12 03:37:19;;;;;;;10.82;6.57;;;;;;;0.45;99.26;100487.47;7395440;19;20115;-69
2023/04/12 03:39:47;;;;;;;7.28;5.13;;;;;;;0.43;99.42;100484.88;7394928;19;20027;-69
2023/04/12 03:42:16;;;;;;;54.60;27.90;;;;;;;0.41;99.19;100481.38;7395706;19;20022;-69
2023/04/12 03:44:44;;;;;;;12.57;6.85;;;;;;;0.39;99.59;100484.78;7393355;19;20035;-69
2023/04/12 03:47:13;;;;;;;10.02;5.45;;;;;;;0.35;99.59;100478.69;7395171;19;20355;-70
2023/04/12 03:49:41;;;;;;;8.43;5.70;;;;;;;0.36;99.37;100484.75;7395946;19;20026;-69
2023/04/12 03:52:10;;;;;;;10.20;5.50;;;;;;;0.33;99.35;100475.25;7395450;19;20387;-68
2023/04/12 03:54:42;;;;;;;6.95;5.28;;;;;;;0.32;99.47;100470.94;7394029;19;20049;-69
2023/04/12 03:57:10;;;;;;;6.15;5.13;;;;;;;0.31;99.48;100471.75;7395829;19;20086;-68
2023/04/12 03:59:39;;;;;;;7.85;5.95;;;;;;;0.30;99.51;100470.03;7394703;19;20074;-69
2023/04/12 04:02:07;;;;;;;9.77;6.32;;;;;;;0.27;99.65;100465.69;7393383;19;20027;-69
2023/04/12 04:04:36;;;;;;;9.50;5.68;;;;;;;0.26;99.40;100463.09;7393332;19;20082;-69
2023/04/12 04:07:06;;;;;;;9.13;6.38;;;;;;;0.25;99.30;100464.81;7394516;19;20364;-69
2023/04/12 04:09:35;;;;;;;9.93;6.60;;;;;;;0.24;99.58;100464.75;7394867;19;20056;-69
2023/04/12 04:12:06;;;;;;;9.30;7.25;;;;;;;0.23;99.35;100466.47;7394761;19;20027;-69
2023/04/12 04:14:35;;;;;;;10.40;6.45;;;;;;;0.21;99.39;100463.00;7392833;19;20532;-70
2023/04/12 04:17:04;;;;;;;12.32;6.30;;;;;;;0.21;99.49;100469.88;7395030;19;20022;-69
2023/04/12 04:19:33;;;;;;;8.13;6.35;;;;;;;0.20;99.21;100468.16;7394038;19;20363;-70
2023/04/12 04:22:03;;;;;;;9.57;6.35;;;;;;;0.19;99.39;100461.25;7394402;19;20490;-69
2023/04/12 04:24:33;;;;;;;10.27;6.85;;;;;;;0.19;99.22;100453.50;7392762;19;20025;-69
2023/04/12 04:27:01;;;;;;;12.48;6.88;;;;;;;0.17;99.41;100448.31;7394165;19;20403;-69
2023/04/12 04:29:32;;;;;;;12.20;6.95;;;;;;;0.17;99.52;100450.06;7394612;19;20060;-69
2023/04/12 04:32:01;;;;;;;10.10;7.20;;;;;;;0.16;99.31;100446.59;7394322;19;20028;-69
2023/04/12 04:34:30;;;;;;;11.45;7.35;;;;;;;0.15;99.39;100450.88;7392194;19;20031;-69
2023/04/12 04:36:59;;;;;;;10.90;7.15;;;;;;;0.15;99.38;100448.31;7394307;19;20426;-70
2023/04/12 04:39:28;;;;;;;14.15;7.68;;;;;;;0.14;99.34;100441.41;7393536;19;20015;-69
2023/04/12 04:41:57;;;;;;;10.45;7.18;;;;;;;0.15;99.53;100435.41;7393973;19;20018;-70
2023/04/12 04:44:25;;;;;;;10.23;6.85;;;;;;;0.11;99.53;100430.16;7391955;19;20035;-69
2023/04/12 04:46:56;;;;;;;10.43;7.68;;;;;;;0.15;99.33;100443.16;7393994;19;20026;-70
2023/04/12 04:49:25;;;;;;;13.82;7.50;;;;;;;0.15;99.58;100438.00;7392134;19;20027;-69
2023/04/12 04:51:53;;;;;;;12.43;7.90;;;;;;;0.15;99.43;100430.25;7393282;19;20435;-69
2023/04/12 04:54:22;;;;;;;11.80;7.88;;;;;;;0.15;99.57;100427.66;7391930;19;20022;-69
2023/04/12 04:56:50;;;;;;;10.32;7.93;;;;;;;0.17;99.51;100434.56;7393819;19;20510;-70
2023/04/12 04:59:19;;;;;;;15.05;8.52;;;;;;;0.17;99.50;100427.69;7400906;19;20010;-69
2023/04/12 05:01:54;;;;;;;14.32;7.50;;;;;;;0.18;99.27;100423.38;7397606;19;20018;-69
2023/04/12 05:04:25;;;;;;;13.88;8.27;;;;;;;0.20;99.41;100411.38;7398302;19;20398;-69
2023/04/12 05:06:53;;;;;;;16.65;9.05;;;;;;;0.21;99.41;100415.69;7400627;19;20453;-70
2023/04/12 05:09:22;;;;;;;12.40;7.65;;;;;;;0.23;99.42;100411.41;7400180;19;20018;-70
2023/04/12 05:11:50;;;;;;;9.27;7.85;;;;;;;0.24;99.60;100408.88;7400209;19;20481;-69
2023/04/12 05:14:19;;;;;;;13.93;8.73;;;;;;;0.27;99.67;100405.47;7398445;19;20018;-69
2023/04/12 05:16:47;;;;;;;15.52;8.90;;;;;;;0.30;99.60;100403.81;7400694;19;20021;-70
2023/04/12 05:19:16;;;;;;;12.35;8.43;;;;;;;0.32;99.76;100402.09;7400669;19;20036;-70
2023/04/12 05:21:47;;;;;;;10.05;8.35;;;;;;;0.35;99.60;100398.69;7398016;19;20023;-69
2023/04/12 05:24:15;;;;;;;12.75;9.20;;;;;;;0.38;99.62;100393.59;7397827;19;20035;-70
2023/04/12 05:26:44;;;;;;;11.77;7.93;;;;;;;0.42;99.64;100394.50;7400081;19;20031;-70
2023/04/12 05:29:12;;;;;;;13.40;8.18;;;;;;;0.45;99.77;100390.22;7399469;19;20549;-68
2023/04/12 05:31:41;;;;;;;12.35;8.30;;;;;;;0.50;99.93;100381.72;7399981;19;20032;-69
2023/04/12 05:34:09;;;;;;;11.98;8.43;;;;;;;0.55;99.72;100380.06;7398355;19;20032;-69
2023/04/12 05:36:38;;;;;;;14.80;8.02;;;;;;;0.62;99.89;100381.84;7399439;19;20019;-69
2023/04/12 05:39:09;;;;;;;14.80;7.85;;;;;;;0.67;100.00;100385.38;7397014;19;20031;-69
2023/04/12 05:41:38;;;;;;;13.85;8.23;;;;;;;0.74;99.94;100388.91;7396981;19;20431;-70
2023/04/12 05:44:06;;;;;;;17.45;8.10;;;;;;;0.81;100.00;100378.66;7397731;19;20035;-70
2023/04/12 05:46:35;;;;;;;16.63;9.68;;;;;;;0.87;100.00;100370.13;7397008;19;20079;-70
2023/04/12 05:49:03;;;;;;;15.60;10.60;;;;;;;0.95;100.00;100375.41;7399106;19;20485;-69
2023/04/12 05:51:32;;;;;;;15.32;9.05;;;;;;;1.03;100.00;100367.72;7399105;19;20509;-69
2023/04/12 05:54:02;;;;;;;18.95;10.07;;;;;;;1.10;100.00;100362.63;7396613;19;20022;-68
2023/04/12 05:56:34;;;;;;;12.45;8.50;;;;;;;1.19;100.00;100350.66;7397530;19;20018;-69
2023/04/12 05:59:03;;;;;;;11.90;8.52;;;;;;;1.27;100.00;100347.28;7399346;19;20019;-68
2023/04/12 06:01:33;;;;;;;11.32;7.75;;;;;;;1.36;100.00;100341.34;7396400;19;20015;-69
2023/04/12 06:04:01;;;;;;;13.32;7.47;;;;;;;1.45;100.00;100328.53;7396329;19;20074;-68
2023/04/12 06:06:30;;;;;;;9.98;7.65;;;;;;;1.55;100.00;100326.88;7399043;19;20392;-69
2023/04/12 06:08:59;;;;;;;13.25;7.28;;;;;;;1.66;100.00;100326.13;7396487;19;20074;-69
2023/04/12 06:11:28;;;;;;;11.18;7.40;;;;;;;1.74;100.00;100320.13;7398952;19;20018;-69
2023/04/12 06:13:59;;;;;;;9.13;7.10;;;;;;;1.86;100.00;100313.31;7397461;19;20423;-69
2023/04/12 06:16:28;;;;;;;12.15;6.80;;;;;;;1.97;100.00;100314.25;7399316;19;20039;-68
2023/04/12 06:18:57;;;;;;;9.23;6.47;;;;;;;2.08;100.00;100311.75;7398456;19;20023;-69
2023/04/12 06:21:26;;;;;;;12.25;6.72;;;;;;;2.19;100.00;100301.47;7396673;19;20040;-69
2023/04/12 06:23:54;;;;;;;11.80;6.78;;;;;;;2.31;99.77;100300.66;7396784;19;20018;-69
2023/04/12 06:26:23;;;;;;;11.65;5.65;;;;;;;2.43;99.98;100301.56;7398443;19;20018;-69
2023/04/12 06:28:51;;;;;;;8.32;4.97;;;;;;;2.53;99.79;100294.72;7398327;19;20018;-69
2023/04/12 06:31:22;;;;;;;11.18;5.13;;;;;;;2.67;99.65;100288.72;7398247;19;20035;-69
2023/04/12 06:33:51;;;;;;;7.55;4.78;;;;;;;2.77;99.54;100280.97;7396917;19;20031;-69
2023/04/12 06:36:42;;;;;;;6.13;4.28;;;;;;;2.93;99.38;100273.22;7397651;19;20366;-69
2023/04/12 06:39:11;;;;;;;6.78;3.60;;;;;;;3.05;98.14;100273.25;7395207;19;20561;-68
2023/04/12 06:41:42;;;;;;;7.78;3.40;;;;;;;3.20;97.74;100279.34;7395871;19;20022;-70
2023/04/12 06:44:10;;;;;;;6.75;2.97;;;;;;;3.35;97.02;100278.47;7396473;19;20046;-69
2023/04/12 06:46:42;;;;;;;6.07;3.38;;;;;;;3.51;97.39;100274.16;7395745;19;20026;-69
2023/04/12 06:49:10;;;;;;;5.57;2.58;;;;;;;3.66;96.77;100276.72;7396974;19;20018;-68
2023/04/12 06:51:39;;;;;;;5.57;2.78;;;;;;;3.83;95.62;100275.84;7396867;19;20022;-69
2023/04/12 06:54:07;;;;;;;9.07;2.65;;;;;;;4.01;95.45;100272.38;7395020;19;20026;-69
2023/04/12 06:56:38;;;;;;;5.90;2.33;;;;;;;4.18;94.76;100261.91;7397253;19;20193;-69
2023/04/12 06:59:07;;;;;;;7.38;1.75;;;;;;;4.35;92.24;100249.75;7395288;19;20018;-69
2023/04/12 07:01:52;;;;;;;4.32;1.73;;;;;;;4.56;91.80;100246.19;7394979;19;20021;-69
2023/04/12 07:04:20;;;;;;;4.13;1.58;;;;;;;4.78;88.87;100245.19;7394518;19;20465;-69
2023/04/12 07:06:49;;;;;;;7.93;3.17;;;;;;;4.97;89.11;100244.22;7396171;19;20018;-68
2023/04/12 07:09:18;;;;;;;5.43;1.73;;;;;;;5.12;88.86;100231.97;7396286;19;20023;-69
2023/04/12 07:11:47;;;;;;;5.15;1.65;;;;;;;5.29;88.57;100229.25;7396284;19;20021;-69
2023/04/12 07:14:15;;;;;;;6.10;2.15;;;;;;;5.42;86.74;100228.28;7394725;19;20026;-69
2023/04/12 07:16:47;;;;;;;3.47;1.50;;;;;;;5.59;85.60;100224.66;7396351;19;20494;-69
2023/04/12 07:19:15;;;;;;;6.75;2.13;;;;;;;5.76;83.93;100224.47;7394450;19;20022;-69
2023/04/12 07:21:44;;;;;;;8.93;1.27;;;;;;;5.94;82.12;100213.88;7395058;19;20481;-69
2023/04/12 07:24:12;;;;;;;5.03;1.35;;;;;;;6.11;81.38;100218.06;7394942;19;20026;-69
2023/04/12 07:26:41;;;;;;;5.85;1.40;;;;;;;6.26;79.52;100212.66;7396328;19;20120;-69
2023/04/12 07:29:10;;;;;;;3.70;1.38;;;;;;;6.42;74.19;100204.63;7395749;19;20011;-68
2023/04/12 07:31:38;;;;;;;6.60;2.05;;;;;;;6.56;74.68;100200.13;7395411;19;20479;-67
2023/04/12 07:34:09;;;;;;;8.18;1.63;;;;;;;6.70;75.85;100202.53;7393362;19;20489;-68
2023/04/12 07:36:38;;;;;;;5.68;1.48;;;;;;;6.82;75.69;100194.53;7396441;19;20479;-68
2023/04/12 07:39:10;;;;;;;2.53;1.33;;;;;;;6.93;74.63;100191.72;7396471;19;20015;-68
2023/04/12 07:41:41;;;;;;;2.95;1.20;;;;;;;7.05;76.92;100188.09;7395155;19;20019;-68
2023/04/12 07:44:09;;;;;;;5.20;1.95;;;;;;;7.14;76.47;100180.09;7394459;19;20018;-68
2023/04/12 07:46:38;;;;;;;4.32;1.40;;;;;;;7.25;75.28;100176.44;7395003;19;20019;-68
2023/04/12 07:49:09;;;;;;;6.32;1.92;;;;;;;7.33;75.48;100172.81;7395103;19;20022;-68
2023/04/12 07:51:37;;;;;;;3.05;1.52;;;;;;;7.42;70.86;100165.69;7394794;19;20010;-68
2023/04/12 07:54:06;;;;;;;5.45;1.65;;;;;;;7.52;72.90;100164.66;7393038;19;20038;-69
2023/04/12 07:56:35;;;;;;;5.60;1.70;;;;;;;7.62;73.36;100154.88;7394735;19;20477;-69
2023/04/12 07:59:04;;;;;;;4.07;1.10;;;;;;;7.70;71.87;100149.56;7395209;19;20035;-68
2023/04/12 08:01:33;;;;;;;4.88;1.38;;;;;;;7.78;71.42;100151.09;7393727;19;20013;-69
2023/04/12 08:04:01;;;;;;;5.85;1.65;;;;;;;7.88;72.31;100151.78;7394005;19;20041;-68
2023/04/12 08:06:32;;;;;;;5.43;1.90;;;;;;;7.96;71.46;100139.44;7394581;19;20056;-68
2023/04/12 08:09:01;;;;;;;6.43;2.70;;;;;;;8.06;69.54;100147.94;7395194;19;20097;-68
2023/04/12 08:11:29;;;;;;;5.03;1.67;;;;;;;8.15;69.28;100139.91;7394564;19;20023;-67
2023/04/12 08:13:58;;;;;;;5.43;1.92;;;;;;;8.25;68.72;100134.47;7392946;19;20037;-68
2023/04/12 08:16:26;;;;;;;6.43;2.60;;;;;;;8.39;71.72;100126.31;7392935;19;20065;-69
2023/04/12 08:18:55;;;;;;;6.15;2.92;;;;;;;8.54;69.32;100126.00;7394706;19;20036;-70
2023/04/12 08:21:24;;;;;;;7.13;2.42;;;;;;;8.67;66.84;100133.56;7393996;19;20026;-70
2023/04/12 08:23:55;;;;;;;7.38;2.88;;;;;;;8.74;63.85;100128.13;7393155;19;20023;-69
2023/04/12 08:26:25;;;;;;;7.03;2.30;;;;;;;8.83;67.32;100121.81;7393991;19;20015;-70
2023/04/12 08:28:53;;;;;;;6.28;1.88;;;;;;;8.90;64.01;100119.94;7393816;19;20511;-68
2023/04/12 08:31:23;;;;;;;5.63;1.65;;;;;;;8.99;66.91;100114.47;7393537;19;20026;-70
2023/04/12 08:33:52;;;;;;;4.75;1.40;;;;;;;9.05;66.31;100121.28;7399597;19;20485;-69
2023/04/12 08:36:21;;;;;;;4.88;1.40;;;;;;;9.13;65.00;100112.34;7401739;19;20031;-70
2023/04/12 08:38:51;;;;;;;2.83;1.17;;;;;;;9.22;64.12;100105.16;7401543;19;20015;-70
2023/04/12 08:41:23;;;;;;;4.15;1.55;;;;;;;9.29;61.34;100112.81;7400927;19;20022;-70
2023/04/12 08:43:54;;;;;;;5.93;1.27;;;;;;;9.37;61.03;100096.91;7399938;19;20022;-70
2023/04/12 08:46:24;;;;;;;5.95;1.50;;;;;;;9.47;61.03;100088.81;7402243;19;20042;-70
2023/04/12 08:48:57;;;;;;;3.65;1.20;;;;;;;9.55;62.17;100089.44;7398563;19;20041;-70
2023/04/12 08:51:25;;;;;;;4.05;1.75;;;;;;;9.64;57.58;100098.81;7402106;19;20018;-70
2023/04/12 08:53:54;;;;;;;2.90;1.40;;;;;;;9.72;56.57;100088.97;7398646;19;20496;-69
2023/04/12 08:56:25;;;;;;;4.13;1.30;;;;;;;9.80;56.68;100083.50;7400949;19;20010;-70
2023/04/12 08:58:54;;;;;;;4.50;1.40;;;;;;;9.90;56.07;100082.34;7400700;19;20018;-70
2023/04/12 09:01:23;;;;;;;3.42;1.52;;;;;;;9.98;52.25;100079.47;7397312;19;20014;-71
2023/04/12 09:03:51;;;;;;;3.72;1.73;;;;;;;10.06;46.66;100077.47;7397747;19;20082;-70
2023/04/12 09:06:20;;;;;;;3.45;1.40;;;;;;;10.15;54.71;100069.34;7397513;19;20023;-69
2023/04/12 09:08:56;;;;;;;5.30;1.70;;;;;;;10.23;50.00;100069.09;7400062;19;20485;-70
2023/04/12 09:11:29;;;;;;;5.25;1.52;;;;;;;10.33;52.92;100067.06;7400532;19;20086;-69
2023/04/12 09:13:59;;;;;;;5.63;1.38;;;;;;;10.40;52.50;100058.09;7397925;19;20070;-71
2023/04/12 09:16:39;;;;;;;2.97;1.27;;;;;;;10.47;45.09;100045.69;7400625;19;20025;-70
2023/04/12 09:19:08;;;;;;;3.10;1.50;;;;;;;10.53;48.64;100048.94;7400816;19;20031;-70
2023/04/12 09:21:37;;;;;;;5.90;1.70;;;;;;;10.61;48.56;100040.81;7398688;19;20014;-70
2023/04/12 09:24:12;;;;;;;6.18;1.55;;;;;;;10.65;49.67;100037.19;7398366;19;20018;-71
2023/04/12 09:26:43;;;;;;;2.05;1.30;;;;;;;10.72;48.35;100028.19;7400551;19;20014;-69
2023/04/12 09:29:26;;;;;;;5.53;1.33;;;;;;;10.79;45.04;100025.38;7400036;19;20486;-69
2023/04/12 09:32:00;;;;;;;4.90;1.75;;;;;;;10.85;47.69;100023.38;7400715;19;20018;-69
2023/04/12 09:34:29;;;;;;;7.35;1.55;;;;;;;10.91;50.35;100009.22;7397646;19;20038;-69
2023/04/12 09:36:58;;;;;;;4.85;1.80;;;;;;;10.97;50.93;100002.88;7399929;19;20022;-70
2023/04/12 09:39:34;;;;;;;2.67;1.40;;;;;;;11.02;47.10;100003.56;7399150;19;20093;-72
2023/04/12 09:42:09;;;;;;;5.53;1.55;;;;;;;11.07;47.94;99991.16;7397526;19;20082;-69
2023/04/12 09:44:38;;;;;;;3.88;1.35;;;;;;;11.17;49.05;99987.28;7397301;19;20031;-70
2023/04/12 09:47:07;;;;;;;6.53;1.50;;;;;;;11.25;50.40;99973.88;7399707;19;20148;-70
2023/04/12 09:49:40;;;;;;;4.82;1.48;;;;;;;11.30;49.62;99971.94;7398747;19;20007;-69
2023/04/12 09:52:10;;;;;;;4.10;1.33;;;;;;;11.38;51.41;99966.41;7398633;19;20014;-71
2023/04/12 09:54:40;;;;;;;3.70;1.38;;;;;;;11.46;48.11;99966.97;7395610;19;20015;-71
2023/04/12 09:57:12;;;;;;;5.18;1.63;;;;;;;11.55;49.20;99956.09;7397608;19;20489;-71
2023/04/12 09:59:42;;;;;;;3.50;1.25;;;;;;;11.64;48.06;99948.78;7398249;19;20036;-70
2023/04/12 10:02:17;;;;;;;6.55;1.40;;;;;;;11.71;47.85;99950.25;7394385;19;20018;-68
2023/04/12 10:04:46;;;;;;;7.57;1.83;;;;;;;11.79;50.59;99944.69;7395084;19;20014;-69
2023/04/12 10:07:15;;;;;;;3.83;1.30;;;;;;;11.85;48.81;99934.81;7397814;19;20019;-69
2023/04/12 10:09:43;;;;;;;2.63;1.27;;;;;;;11.92;49.10;99927.53;7397908;19;20023;-70
2023/04/12 10:12:15;;;;;;;4.63;1.38;;;;;;;12.01;48.03;99921.06;7399691;19;20019;-67
2023/04/12 10:14:45;;;;;;;3.72;1.27;;;;;;;12.09;48.77;99911.09;7395905;19;20035;-67
2023/04/12 10:17:15;;;;;;;4.20;1.55;;;;;;;12.17;42.62;99905.50;7396599;19;20053;-69
2023/04/12 10:19:46;;;;;;;6.57;1.48;;;;;;;12.25;44.57;99892.06;7398517;19;20062;-68
2023/04/12 10:22:15;;;;;;;3.10;1.17;;;;;;;12.30;44.39;99892.72;7398600;19;20090;-68
2023/04/12 10:24:45;;;;;;;3.70;1.30;;;;;;;12.33;48.01;99880.28;7396252;19;20361;-67
2023/04/12 10:27:27;;;;;;;3.28;1.20;;;;;;;12.41;45.74;99886.97;7398039;19;20024;-68
2023/04/12 10:29:55;;;;;;;4.13;1.20;;;;;;;12.49;47.62;99871.72;7396216;19;20022;-69
2023/04/12 10:32:25;;;;;;;4.25;1.30;;;;;;;12.57;47.33;99871.38;7397972;19;20015;-68
2023/04/12 10:34:55;;;;;;;3.28;0.95;;;;;;;12.65;45.18;99858.72;7398322;19;20429;-69
2023/04/12 10:37:44;;;;;;;3.53;1.10;;;;;;;12.73;46.74;99863.69;7399422;19;20014;-68
2023/04/12 10:40:18;;;;;;;6.78;2.20;;;;;;;12.80;45.11;99858.06;7397985;19;20019;-67
2023/04/12 10:42:49;;;;;;;3.22;1.10;;;;;;;12.86;41.77;99849.03;7396779;19;20066;-70
2023/04/12 10:45:39;;;;;;;5.72;1.73;;;;;;;12.92;41.17;99851.38;7395334;19;20027;-67
2023/04/12 10:48:08;;;;;;;5.80;1.70;;;;;;;12.99;45.09;99844.03;7397228;19;20023;-67
2023/04/12 10:50:36;;;;;;;2.60;1.42;;;;;;;13.06;45.13;99837.56;7395020;19;20022;-68
2023/04/12 10:53:24;;;;;;;3.42;0.85;;;;;;;13.12;41.65;99832.03;7395746;19;20031;-68
2023/04/12 10:55:52;;;;;;;2.53;1.10;;;;;;;13.20;45.53;99829.03;7395402;19;20015;-74
2023/04/12 10:58:51;;;;;;;2.72;1.15;;;;;;;13.24;40.27;99830.59;7396107;19;20015;-70
2023/04/12 11:01:22;;;;;;;3.13;1.20;;;;;;;13.30;43.01;99821.56;7396491;19;20481;-68
2023/04/12 11:04:11;;;;;;;1.63;0.77;;;;;;;13.36;39.65;99814.19;7394410;19;20018;-67
2023/04/12 11:06:58;;;;;;;4.97;1.50;;;;;;;13.46;41.32;99817.28;7397056;19;20035;-67
2023/04/12 11:09:28;;;;;;;5.03;1.40;;;;;;;13.54;44.82;99816.06;7396951;19;20018;-67
2023/04/12 11:12:12;;;;;;;4.35;1.27;;;;;;;13.61;42.63;99817.44;7396264;19;20018;-67
2023/04/12 11:14:46;;;;;;;5.68;1.60;;;;;;;13.69;42.15;99802.13;7394218;19;20097;-67
2023/04/12 11:17:27;;;;;;;4.03;1.35;;;;;;;13.74;42.45;99796.63;7396407;19;20045;-67
2023/04/12 11:19:58;;;;;;;3.97;1.58;;;;;;;13.80;45.07;99793.66;7395914;19;20485;-66
2023/04/12 11:22:29;;;;;;;7.40;1.48;;;;;;;13.88;44.12;99796.78;7394337;19;20022;-68
2023/04/12 11:24:59;;;;;;;3.90;1.25;;;;;;;13.97;44.60;99788.38;7396177;19;20015;-69
2023/04/12 11:27:29;;;;;;;4.38;1.23;;;;;;;14.04;43.90;99765.22;7395910;19;20090;-69
2023/04/12 11:29:59;;;;;;;3.13;1.00;;;;;;;14.10;43.03;99761.38;7394438;19;20087;-68
2023/04/12 11:32:33;;;;;;;5.13;1.75;;;;;;;14.16;41.27;99766.34;7395618;19;20015;-68
2023/04/12 11:35:01;;;;;;;5.35;1.55;;;;;;;14.20;43.89;99757.31;7395869;19;20010;-69
2023/04/12 11:37:32;;;;;;;3.38;1.50;;;;;;;14.25;44.26;99765.84;7395464;19;20018;-69
2023/04/12 11:40:03;;;;;;;5.18;1.30;;;;;;;14.33;43.44;99749.63;7396477;19;20025;-68
2023/04/12 11:42:34;;;;;;;4.22;1.17;;;;;;;14.38;42.23;99744.97;7394092;19;20026;-70
2023/04/12 11:45:03;;;;;;;2.83;1.10;;;;;;;14.47;43.36;99755.03;7395724;19;20108;-67
2023/04/12 11:47:34;;;;;;;5.57;1.70;;;;;;;14.49;39.86;99737.31;7395416;19;20011;-69
2023/04/12 11:50:03;;;;;;;5.18;1.60;;;;;;;14.56;43.52;99739.59;7395459;19;20025;-67
2023/04/12 11:52:32;;;;;;;5.47;1.60;;;;;;;14.60;41.50;99730.59;7395095;19;20018;-68
2023/04/12 11:55:05;;;;;;;4.38;1.60;;;;;;;14.60;43.04;99723.53;7394578;19;20022;-68
2023/04/12 11:57:34;;;;;;;5.05;1.20;;;;;;;14.59;43.41;99726.25;7395570;19;20036;-68
2023/04/12 12:00:05;;;;;;;4.15;1.55;;;;;;;14.60;43.09;99717.41;7393354;19;20018;-69
2023/04/12 12:02:37;;;;;;;5.13;1.63;;;;;;;14.62;43.57;99710.25;7393458;19;20018;-68